Time;durP1;ratioP1;P1;durP2;ratioP2;P2;SDS_P1;SDS_P2;PMS_P1;PMS_P2;Temp;Humidity;BMP_temperature;BMP_pressure;BME280_temperature;BME280_humidity;BME280_pressure;Samples;Min_cycle;Max_cycle;Signal;HPM_P1;HPM_P2
2023/10/19 00:02:45;;;;;;;1.93;1.43;;;21.50;97.90;;;;;;5015172;28;20461;-57
2023/10/19 00:05:14;;;;;;;2.50;1.90;;;21.50;97.90;;;;;;5017600;28;20454;-55
2023/10/19 00:07:42;;;;;;;2.00;1.80;;;21.50;97.90;;;;;;5017631;28;20482;-59
2023/10/19 00:10:09;;;;;;;2.30;1.63;;;21.50;97.90;;;;;;5018412;28;20490;-58
2023/10/19 00:12:36;;;;;;;2.37;1.93;;;21.50;97.80;;;;;;5014093;28;21008;-59
2023/10/19 00:15:04;;;;;;;2.20;2.00;;;21.50;97.80;;;;;;5017260;28;20469;-56
2023/10/19 00:17:32;;;;;;;3.17;1.60;;;21.50;97.80;;;;;;5014342;28;20446;-59
2023/10/19 00:20:09;;;;;;;3.03;1.57;;;21.40;97.80;;;;;;5017485;28;20728;-59
2023/10/19 00:22:36;;;;;;;2.47;1.67;;;21.40;97.80;;;;;;5016531;28;20469;-57
2023/10/19 00:25:07;;;;;;;4.30;1.90;;;21.40;97.70;;;;;;5018494;28;20823;-60
2023/10/19 00:27:34;;;;;;;2.50;1.87;;;21.40;97.70;;;;;;5017671;28;20462;-58
2023/10/19 00:30:06;;;;;;;1.87;1.70;;;21.40;97.80;;;;;;5014924;28;21190;-56
2023/10/19 00:32:38;;;;;;;2.17;1.77;;;21.40;97.90;;;;;;5015560;28;20594;-59
2023/10/19 00:35:21;;;;;;;1.57;1.47;;;21.40;97.90;;;;;;5017518;28;20205;-58
2023/10/19 00:37:48;;;;;;;1.93;1.73;;;21.40;98.00;;;;;;5018482;28;20990;-59
2023/10/19 00:40:33;;;;;;;9.33;1.53;;;21.40;98.00;;;;;;5020146;28;20557;-57
2023/10/19 00:43:05;;;;;;;1.80;1.47;;;21.30;98.00;;;;;;5019893;28;20461;-59
2023/10/19 00:45:33;;;;;;;2.00;1.80;;;21.30;97.90;;;;;;5016277;28;20467;-56
2023/10/19 00:48:00;;;;;;;2.20;1.63;;;21.40;98.00;;;;;;5019447;28;21039;-57
2023/10/19 00:50:30;;;;;;;2.28;1.75;;;21.30;98.00;;;;;;5019616;28;20461;-59
2023/10/19 00:52:58;;;;;;;1.87;1.60;;;21.30;98.00;;;;;;5018933;28;20211;-57
2023/10/19 00:55:28;;;;;;;2.05;1.50;;;21.30;98.00;;;;;;5017364;28;20462;-58
2023/10/19 00:57:56;;;;;;;2.30;1.63;;;21.30;97.90;;;;;;5018261;28;20465;-58
2023/10/19 01:00:30;;;;;;;1.90;1.70;;;21.30;98.00;;;;;;5016554;28;20837;-53
2023/10/19 01:03:00;;;;;;;2.70;1.97;;;21.40;98.10;;;;;;5031056;22;20502;-62
2023/10/19 01:05:32;;;;;;;1.50;1.30;;;21.40;98.00;;;;;;5016872;28;20457;-61
2023/10/19 01:08:02;;;;;;;1.53;1.37;;;21.30;98.00;;;;;;5018247;28;21099;-62
2023/10/19 01:10:31;;;;;;;2.23;1.50;;;21.30;98.10;;;;;;5019018;28;20573;-62
2023/10/19 01:12:59;;;;;;;1.37;1.27;;;21.30;98.10;;;;;;5017763;28;20591;-61
2023/10/19 01:15:30;;;;;;;1.30;1.20;;;21.30;98.20;;;;;;5018240;28;20456;-61
2023/10/19 01:17:58;;;;;;;1.90;1.70;;;21.30;98.20;;;;;;5017317;28;20462;-61
2023/10/19 01:20:47;;;;;;;1.67;1.58;;;21.20;98.20;;;;;;5019635;28;20465;-62
2023/10/19 01:23:25;;;;;;;2.07;1.60;;;21.20;98.10;;;;;;5016996;28;20216;-61
2023/10/19 01:26:01;;;;;;;1.83;1.40;;;21.30;98.20;;;;;;5018507;28;21247;-61
2023/10/19 01:28:41;;;;;;;1.90;1.77;;;21.30;98.20;;;;;;5018760;28;20456;-62
2023/10/19 01:31:13;;;;;;;1.73;1.63;;;21.20;98.20;;;;;;5018361;28;20199;-61
2023/10/19 01:33:41;;;;;;;1.73;1.63;;;21.20;98.20;;;;;;5016977;28;20477;-61
2023/10/19 01:36:11;;;;;;;1.60;1.43;;;21.20;98.30;;;;;;5016845;28;20200;-61
2023/10/19 01:38:40;;;;;;;1.55;1.45;;;21.10;98.30;;;;;;5015851;28;20504;-61
2023/10/19 01:41:13;;;;;;;2.37;1.50;;;21.20;98.40;;;;;;5015406;28;21008;-61
2023/10/19 01:43:41;;;;;;;2.67;1.58;;;21.20;98.30;;;;;;5016417;28;20496;-61
2023/10/19 01:46:11;;;;;;;1.80;1.50;;;21.10;98.20;;;;;;5014787;28;20199;-61
2023/10/19 01:48:40;;;;;;;1.58;1.42;;;21.20;98.30;;;;;;5014833;28;20461;-61
2023/10/19 01:51:11;;;;;;;1.80;1.58;;;21.20;98.30;;;;;;5015068;28;20208;-61
2023/10/19 01:53:39;;;;;;;1.50;1.40;;;21.10;98.20;;;;;;5016681;28;20508;-62
2023/10/19 01:56:09;;;;;;;1.83;1.27;;;21.20;98.30;;;;;;5015689;28;20477;-61
2023/10/19 01:58:36;;;;;;;2.00;1.80;;;21.10;98.20;;;;;;5016092;28;20458;-61
2023/10/19 02:01:08;;;;;;;1.35;1.25;;;21.10;98.20;;;;;;5010497;28;20557;-61
2023/10/19 02:03:35;;;;;;;1.65;1.55;;;21.10;98.20;;;;;;5014812;28;20221;-62
2023/10/19 02:06:10;;;;;;;1.70;1.43;;;21.10;98.20;;;;;;5014247;28;20187;-61
2023/10/19 02:08:38;;;;;;;1.60;1.50;;;21.10;98.30;;;;;;5015165;28;20516;-61
2023/10/19 02:11:13;;;;;;;1.73;1.42;;;21.20;98.30;;;;;;5014119;28;20207;-62
2023/10/19 02:13:39;;;;;;;2.00;1.37;;;21.00;98.20;;;;;;5017319;28;21573;-61
2023/10/19 02:16:08;;;;;;;2.27;2.00;;;21.00;98.30;;;;;;5010542;28;20468;-61
2023/10/19 02:18:34;;;;;;;1.43;1.33;;;21.10;98.30;;;;;;5016604;28;20461;-61
2023/10/19 02:21:06;;;;;;;2.25;2.05;;;21.00;98.30;;;;;;5016740;28;20460;-61
2023/10/19 02:23:34;;;;;;;1.67;1.40;;;21.00;98.20;;;;;;5016526;28;20321;-61
2023/10/19 02:26:04;;;;;;;1.73;1.63;;;21.10;98.30;;;;;;5016469;28;21041;-61
2023/10/19 02:28:37;;;;;;;1.40;1.30;;;21.10;98.30;;;;;;5015389;28;20582;-61
2023/10/19 02:31:15;;;;;;;1.77;1.40;;;20.90;98.20;;;;;;5018367;28;20207;-62
2023/10/19 02:33:41;;;;;;;1.93;1.73;;;21.10;98.20;;;;;;5014030;28;20254;-61
2023/10/19 02:36:12;;;;;;;1.77;1.57;;;21.00;98.20;;;;;;5016572;28;20880;-62
2023/10/19 02:38:39;;;;;;;1.30;1.20;;;21.00;98.20;;;;;;5018041;28;20467;-61
2023/10/19 02:41:09;;;;;;;1.10;1.00;;;21.00;98.30;;;;;;5019287;28;20453;-62
2023/10/19 02:43:35;;;;;;;1.40;1.10;;;21.00;98.20;;;;;;5016959;28;20553;-62
2023/10/19 02:46:03;;;;;;;1.60;1.50;;;21.00;98.20;;;;;;5016358;28;20559;-61
2023/10/19 02:48:29;;;;;;;1.80;1.60;;;20.90;98.20;;;;;;5014346;28;20659;-61
2023/10/19 02:50:58;;;;;;;1.63;1.43;;;21.00;98.20;;;;;;5016847;28;20425;-61
2023/10/19 02:53:26;;;;;;;1.98;1.50;;;20.90;98.20;;;;;;5015891;28;20223;-61
2023/10/19 02:55:55;;;;;;;1.80;1.70;;;20.90;98.10;;;;;;5015302;28;20211;-61
2023/10/19 02:58:22;;;;;;;1.50;1.40;;;21.00;98.20;;;;;;5015233;28;20208;-61
2023/10/19 03:00:51;;;;;;;1.50;1.40;;;21.00;98.20;;;;;;5013592;28;20731;-61
2023/10/19 03:03:17;;;;;;;1.98;1.77;;;20.90;98.20;;;;;;5016610;28;20469;-61
2023/10/19 03:05:44;;;;;;;1.97;1.87;;;21.00;98.30;;;;;;5008034;28;20220;-61
2023/10/19 03:08:10;;;;;;;1.73;1.55;;;20.90;98.30;;;;;;5015420;28;20334;-61
2023/10/19 03:10:41;;;;;;;2.05;1.88;;;20.80;98.20;;;;;;5016255;28;20223;-61
2023/10/19 03:13:07;;;;;;;1.58;1.40;;;20.90;98.60;;;;;;5015183;28;20632;-61
2023/10/19 03:15:39;;;;;;;2.43;2.10;;;21.10;98.30;;;;;;5008489;28;20601;-61
2023/10/19 03:18:05;;;;;;;2.03;1.77;;;21.00;98.30;;;;;;5020095;28;20930;-61
2023/10/19 03:20:33;;;;;;;1.80;1.47;;;20.90;98.20;;;;;;5019928;28;20464;-61
2023/10/19 03:23:01;;;;;;;1.67;1.40;;;20.90;98.30;;;;;;5017644;28;20762;-63
2023/10/19 03:25:51;;;;;;;1.60;1.50;;;20.90;98.20;;;;;;5019788;28;20198;-61
2023/10/19 03:28:18;;;;;;;1.70;1.35;;;20.80;98.10;;;;;;5018977;28;21285;-62
2023/10/19 03:30:47;;;;;;;1.38;1.25;;;20.90;98.20;;;;;;5018232;28;20211;-61
2023/10/19 03:33:13;;;;;;;1.70;1.60;;;21.00;98.50;;;;;;5020746;28;20226;-61
2023/10/19 03:35:41;;;;;;;1.52;1.42;;;20.80;98.10;;;;;;5019260;28;20191;-61
2023/10/19 03:38:14;;;;;;;1.58;1.48;;;21.00;98.20;;;;;;5017432;28;20762;-61
2023/10/19 03:40:46;;;;;;;3.15;1.35;;;20.80;98.10;;;;;;5019909;28;20277;-61
2023/10/19 03:43:17;;;;;;;1.67;1.58;;;20.70;98.20;;;;;;5017916;28;20210;-61
2023/10/19 03:45:51;;;;;;;4.35;1.67;;;20.90;98.30;;;;;;5012747;28;20262;-61
2023/10/19 03:48:24;;;;;;;2.08;1.40;;;20.80;98.20;;;;;;5016904;28;20198;-61
2023/10/19 03:50:55;;;;;;;1.90;1.50;;;20.80;98.20;;;;;;5015759;28;20226;-61
2023/10/19 03:53:22;;;;;;;1.60;1.38;;;20.80;98.20;;;;;;5018865;28;20223;-62
2023/10/19 03:55:49;;;;;;;1.95;1.48;;;20.80;98.20;;;;;;5017157;28;21216;-61
2023/10/19 03:58:16;;;;;;;1.55;1.35;;;20.80;98.20;;;;;;5015498;28;20211;-61
2023/10/19 04:00:44;;;;;;;3.13;1.45;;;20.70;98.10;;;;;;5016191;28;20583;-61
2023/10/19 04:03:12;;;;;;;1.60;1.50;;;20.70;98.00;;;;;;5017839;28;20216;-61
2023/10/19 04:05:41;;;;;;;1.67;1.58;;;20.90;98.20;;;;;;5013607;28;20971;-61
2023/10/19 04:08:12;;;;;;;2.22;1.98;;;20.70;98.10;;;;;;5016458;28;20196;-60
2023/10/19 04:10:44;;;;;;;1.30;1.20;;;20.70;98.10;;;;;;5018396;28;20197;-60
2023/10/19 04:13:12;;;;;;;1.50;1.40;;;20.70;98.20;;;;;;5018180;28;20224;-60
2023/10/19 04:15:39;;;;;;;1.38;1.27;;;20.70;98.10;;;;;;5016908;28;20784;-60
2023/10/19 04:18:09;;;;;;;2.08;1.50;;;20.70;98.10;;;;;;5018158;28;20204;-60
2023/10/19 04:20:54;;;;;;;1.90;1.67;;;20.80;98.20;;;;;;5017741;28;20199;-60
2023/10/19 04:23:22;;;;;;;1.85;1.17;;;20.70;98.20;;;;;;5020196;28;20856;-64
2023/10/19 04:25:49;;;;;;;2.38;1.25;;;20.70;98.20;;;;;;5017043;28;20254;-62
2023/10/19 04:28:17;;;;;;;3.25;1.33;;;20.80;98.20;;;;;;5015856;28;20208;-62
2023/10/19 04:30:43;;;;;;;1.20;1.05;;;20.70;98.10;;;;;;5017378;28;20199;-62
2023/10/19 04:33:10;;;;;;;1.80;1.70;;;20.70;98.20;;;;;;5019272;28;20219;-62
2023/10/19 04:35:41;;;;;;;1.58;1.10;;;20.70;98.20;;;;;;5014724;28;20229;-62
2023/10/19 04:38:08;;;;;;;1.63;1.48;;;20.70;98.20;;;;;;5019250;28;20199;-62
2023/10/19 04:40:35;;;;;;;1.65;1.35;;;20.60;98.10;;;;;;5022669;28;20341;-62
2023/10/19 04:43:04;;;;;;;1.40;1.30;;;20.50;98.10;;;;;;5016659;28;20202;-62
2023/10/19 04:45:30;;;;;;;1.52;1.20;;;20.70;98.30;;;;;;5018986;28;20717;-62
2023/10/19 04:47:58;;;;;;;1.33;1.10;;;20.60;98.20;;;;;;5017923;28;20203;-62
2023/10/19 04:50:24;;;;;;;1.20;1.10;;;20.70;98.30;;;;;;5014162;28;20207;-62
2023/10/19 04:52:52;;;;;;;2.30;1.90;;;20.60;98.20;;;;;;5014508;28;20208;-61
2023/10/19 04:55:20;;;;;;;1.95;1.75;;;20.60;98.20;;;;;;5018521;28;20195;-63
2023/10/19 04:57:47;;;;;;;1.60;1.42;;;20.70;98.30;;;;;;5018011;28;20755;-62
2023/10/19 05:00:15;;;;;;;1.60;1.48;;;20.60;98.20;;;;;;5017600;28;20238;-62
2023/10/19 05:02:42;;;;;;;1.20;1.10;;;20.70;98.40;;;;;;5017782;28;20290;-62
2023/10/19 05:05:09;;;;;;;1.30;1.20;;;20.70;98.30;;;;;;5014133;28;20214;-62
2023/10/19 05:07:36;;;;;;;1.60;1.30;;;20.70;98.40;;;;;;5017199;28;20310;-62
2023/10/19 05:10:06;;;;;;;1.45;1.30;;;20.60;98.30;;;;;;5015813;28;20201;-62
2023/10/19 05:12:33;;;;;;;1.58;1.42;;;20.60;98.30;;;;;;5014511;28;20200;-62
2023/10/19 05:15:00;;;;;;;1.50;1.40;;;20.70;98.40;;;;;;5016348;28;20707;-62
2023/10/19 05:17:27;;;;;;;1.50;1.33;;;20.60;98.40;;;;;;5016822;28;20682;-63
2023/10/19 05:19:53;;;;;;;1.30;1.05;;;20.60;98.40;;;;;;5014774;28;20408;-62
2023/10/19 05:22:21;;;;;;;1.60;1.48;;;20.60;98.50;;;;;;5017078;28;20288;-62
2023/10/19 05:24:48;;;;;;;1.70;1.60;;;20.60;98.50;;;;;;5016349;28;20592;-62
2023/10/19 05:27:17;;;;;;;1.98;1.35;;;20.60;98.50;;;;;;5015475;28;20265;-62
2023/10/19 05:29:44;;;;;;;1.90;1.70;;;20.60;98.50;;;;;;5016720;28;20199;-60
2023/10/19 05:32:11;;;;;;;1.73;1.42;;;20.50;98.40;;;;;;5011052;28;20202;-60
2023/10/19 05:34:37;;;;;;;1.70;1.60;;;20.50;98.40;;;;;;5018034;28;20238;-62
2023/10/19 05:37:05;;;;;;;2.70;1.60;;;20.70;98.60;;;;;;5017126;28;20203;-62
2023/10/19 05:39:33;;;;;;;1.27;1.05;;;20.60;98.50;;;;;;5017698;28;20231;-62
2023/10/19 05:42:01;;;;;;;1.50;1.33;;;20.50;98.50;;;;;;5015896;28;20346;-62
2023/10/19 05:44:30;;;;;;;1.50;1.20;;;20.60;98.60;;;;;;5015151;28;20195;-62
2023/10/19 05:46:58;;;;;;;1.73;1.30;;;20.50;98.60;;;;;;5016166;28;20199;-63
2023/10/19 05:49:25;;;;;;;1.40;1.17;;;20.50;98.60;;;;;;5020134;28;20572;-60
2023/10/19 05:51:52;;;;;;;1.23;1.13;;;20.50;98.50;;;;;;5017300;28;20774;-63
2023/10/19 05:54:19;;;;;;;1.30;1.20;;;20.60;98.60;;;;;;5019418;28;21125;-61
2023/10/19 05:56:46;;;;;;;1.30;1.20;;;20.50;98.70;;;;;;5015510;28;20211;-62
2023/10/19 05:59:14;;;;;;;1.48;1.10;;;20.60;98.70;;;;;;5014126;28;20197;-62
2023/10/19 06:01:46;;;;;;;1.40;1.10;;;20.60;98.70;;;;;;5012750;28;20192;-61
2023/10/19 06:04:13;;;;;;;1.30;1.20;;;20.50;98.70;;;;;;5018727;28;20210;-62
2023/10/19 06:06:40;;;;;;;1.30;1.20;;;20.60;98.70;;;;;;5016124;28;20202;-62
2023/10/19 06:09:09;;;;;;;1.55;1.30;;;20.70;99.20;;;;;;5017924;28;20200;-62
2023/10/19 06:11:37;;;;;;;1.48;1.20;;;20.50;98.80;;;;;;5015198;28;20852;-61
2023/10/19 06:14:06;;;;;;;1.30;1.20;;;20.60;98.80;;;;;;5013867;28;20681;-61
2023/10/19 06:16:34;;;;;;;1.38;1.23;;;20.50;98.80;;;;;;5014799;28;20203;-61
2023/10/19 06:19:02;;;;;;;1.65;1.33;;;20.50;98.80;;;;;;5015659;28;20789;-62
2023/10/19 06:21:30;;;;;;;1.30;1.20;;;20.50;98.80;;;;;;5015510;28;20199;-62
2023/10/19 06:23:56;;;;;;;1.65;1.38;;;20.50;98.80;;;;;;5016073;28;20211;-62
2023/10/19 06:26:23;;;;;;;2.05;1.40;;;20.40;98.90;;;;;;5015744;28;20211;-61
2023/10/19 06:28:50;;;;;;;1.50;1.40;;;20.50;99.40;;;;;;5017666;28;20320;-62
2023/10/19 06:31:19;;;;;;;1.40;1.30;;;20.50;99.10;;;;;;5016143;28;20694;-61
2023/10/19 06:33:45;;;;;;;1.73;1.45;;;20.50;99.20;;;;;;5017580;28;20583;-61
2023/10/19 06:36:13;;;;;;;1.20;1.08;;;20.60;99.30;;;;;;5014470;28;20204;-61
2023/10/19 06:38:42;;;;;;;1.50;1.25;;;20.60;99.40;;;;;;5015417;28;20191;-61
2023/10/19 06:41:12;;;;;;;1.30;1.20;;;20.50;99.30;;;;;;5018546;28;20203;-61
2023/10/19 06:43:39;;;;;;;1.20;1.00;;;20.50;99.50;;;;;;5015360;28;20216;-61
2023/10/19 06:46:07;;;;;;;1.30;1.13;;;20.50;99.40;;;;;;5015101;28;20213;-62
2023/10/19 06:48:35;;;;;;;1.40;1.27;;;20.60;99.40;;;;;;5015287;28;23120;-62
2023/10/19 06:51:02;;;;;;;1.90;1.45;;;20.60;99.60;;;;;;5016584;28;20382;-62
2023/10/19 06:53:31;;;;;;;1.55;1.33;;;20.70;99.70;;;;;;5022738;28;20202;-62
2023/10/19 06:55:59;;;;;;;2.05;1.30;;;20.70;99.80;;;;;;5019896;28;21065;-62
2023/10/19 06:58:26;;;;;;;1.45;1.23;;;20.60;99.70;;;;;;5020946;28;20202;-62
2023/10/19 07:00:59;;;;;;;1.63;1.00;;;20.70;99.70;;;;;;5019833;28;20880;-62
2023/10/19 07:03:28;;;;;;;1.40;1.30;;;20.70;99.80;;;;;;5021170;28;20247;-62
2023/10/19 07:05:55;;;;;;;1.75;1.27;;;20.70;99.80;;;;;;5017971;28;20200;-62
2023/10/19 07:08:22;;;;;;;1.30;1.10;;;20.70;99.70;;;;;;5020262;28;20261;-62
2023/10/19 07:10:50;;;;;;;1.23;1.13;;;20.70;99.70;;;;;;5018740;28;20196;-62
2023/10/19 07:13:17;;;;;;;1.20;1.03;;;20.80;99.80;;;;;;5019911;28;21034;-62
2023/10/19 07:15:46;;;;;;;1.30;1.20;;;20.80;99.80;;;;;;5015590;28;20613;-60
2023/10/19 07:18:13;;;;;;;1.55;1.20;;;20.80;99.90;;;;;;5021003;28;20199;-61
2023/10/19 07:20:42;;;;;;;1.27;1.17;;;20.80;99.90;;;;;;5014004;28;20206;-60
2023/10/19 07:23:18;;;;;;;1.30;1.20;;;20.80;99.90;;;;;;5020601;28;20225;-61
2023/10/19 07:25:45;;;;;;;1.65;1.40;;;20.90;99.90;;;;;;5020629;28;20207;-60
2023/10/19 07:28:13;;;;;;;1.55;1.38;;;20.90;99.90;;;;;;5010958;28;21885;-60
2023/10/19 07:30:41;;;;;;;1.52;1.30;;;20.90;99.90;;;;;;5017554;28;20322;-60
2023/10/19 07:33:09;;;;;;;1.55;1.45;;;20.80;99.90;;;;;;5019123;28;20577;-60
2023/10/19 07:35:37;;;;;;;1.55;1.38;;;20.90;99.90;;;;;;5014016;28;20222;-61
2023/10/19 07:38:06;;;;;;;1.23;1.10;;;20.90;99.90;;;;;;5016724;28;20214;-61
2023/10/19 07:40:33;;;;;;;1.50;1.37;;;20.90;99.90;;;;;;5016475;28;20210;-62
2023/10/19 07:43:00;;;;;;;2.25;1.38;;;20.90;99.80;;;;;;5012707;28;20704;-62
2023/10/19 07:45:28;;;;;;;1.60;1.30;;;20.90;99.80;;;;;;5015550;28;20215;-60
2023/10/19 07:47:55;;;;;;;1.42;1.25;;;21.00;99.90;;;;;;5014910;28;20541;-62
2023/10/19 07:50:22;;;;;;;1.77;1.40;;;21.10;99.90;;;;;;5015159;28;20210;-62
2023/10/19 07:52:51;;;;;;;1.40;1.30;;;20.90;99.90;;;;;;5019126;28;20667;-62
2023/10/19 07:55:19;;;;;;;1.77;1.35;;;20.90;99.90;;;;;;5015159;28;20212;-62
2023/10/19 07:57:46;;;;;;;1.20;1.00;;;20.90;99.90;;;;;;5014593;28;20588;-60
2023/10/19 08:00:14;;;;;;;1.38;1.20;;;20.90;99.90;;;;;;5004306;28;20203;-60
2023/10/19 08:02:45;;;;;;;1.30;1.15;;;20.90;99.90;;;;;;5010607;28;20285;-61
2023/10/19 08:05:12;;;;;;;1.50;1.40;;;20.90;99.90;;;;;;5015426;28;20287;-60
2023/10/19 08:07:42;;;;;;;2.50;1.20;;;21.00;99.90;;;;;;5017542;28;20459;-60
2023/10/19 08:10:10;;;;;;;1.50;1.40;;;21.10;99.90;;;;;;5016889;28;20195;-61
2023/10/19 08:12:37;;;;;;;1.48;1.20;;;21.00;99.90;;;;;;5016081;28;20241;-60
2023/10/19 08:15:06;;;;;;;1.07;0.90;;;21.10;99.90;;;;;;5014368;28;20233;-60
2023/10/19 08:17:34;;;;;;;1.15;1.05;;;21.10;99.90;;;;;;5015779;28;20974;-61
2023/10/19 08:20:03;;;;;;;1.40;1.30;;;21.00;99.90;;;;;;5013972;28;20989;-60
2023/10/19 08:22:30;;;;;;;1.50;1.30;;;21.10;99.90;;;;;;5016613;28;20478;-61
2023/10/19 08:24:57;;;;;;;1.37;1.00;;;21.10;99.90;;;;;;5016441;28;20505;-60
2023/10/19 08:27:24;;;;;;;3.28;1.13;;;21.10;99.90;;;;;;5017060;28;20466;-61
2023/10/19 08:29:51;;;;;;;1.60;1.37;;;21.10;99.90;;;;;;5009052;28;20226;-61
2023/10/19 08:32:18;;;;;;;1.30;1.17;;;21.10;99.90;;;;;;5006189;28;20454;-61
2023/10/19 08:34:45;;;;;;;1.88;1.40;;;21.20;99.90;;;;;;5013045;28;20469;-61
2023/10/19 08:37:13;;;;;;;2.70;1.90;;;21.30;99.90;;;;;;5018177;28;20200;-61
2023/10/19 08:39:40;;;;;;;1.65;1.20;;;21.20;99.90;;;;;;5019855;28;20457;-61
2023/10/19 08:42:07;;;;;;;1.33;1.10;;;21.20;99.90;;;;;;5019557;28;20578;-61
2023/10/19 08:44:34;;;;;;;2.20;1.30;;;21.20;99.90;;;;;;5011889;28;20468;-61
2023/10/19 08:47:01;;;;;;;4.40;1.40;;;21.20;99.90;;;;;;5013474;28;20953;-61
2023/10/19 08:49:27;;;;;;;2.03;1.57;;;21.30;99.90;;;;;;5015970;28;22679;-61
2023/10/19 08:51:55;;;;;;;1.97;1.70;;;21.30;99.90;;;;;;5015531;28;20587;-61
2023/10/19 08:54:23;;;;;;;2.27;1.40;;;21.20;99.90;;;;;;5015256;28;20461;-61
2023/10/19 08:56:50;;;;;;;5.30;1.67;;;21.20;99.90;;;;;;5014804;28;20465;-61
2023/10/19 08:59:17;;;;;;;2.13;1.30;;;21.20;99.90;;;;;;5015190;28;20474;-62
2023/10/19 09:01:44;;;;;;;1.57;1.47;;;21.20;99.90;;;;;;5008219;28;20197;-63
2023/10/19 09:04:11;;;;;;;1.33;1.20;;;21.20;99.90;;;;;;5017062;28;20454;-62
2023/10/19 09:06:42;;;;;;;1.50;1.17;;;21.20;99.90;;;;;;5015885;28;20835;-62
2023/10/19 09:09:13;;;;;;;1.93;1.00;;;21.30;99.90;;;;;;5018396;28;20515;-62
2023/10/19 09:11:41;;;;;;;1.93;1.43;;;21.30;99.90;;;;;;5016225;28;21485;-61
2023/10/19 09:14:08;;;;;;;2.07;1.40;;;21.30;99.90;;;;;;5015851;28;20469;-60
2023/10/19 09:16:36;;;;;;;1.83;1.43;;;21.30;99.90;;;;;;5014760;28;20504;-60
2023/10/19 09:19:04;;;;;;;2.53;1.60;;;21.30;99.90;;;;;;5013456;28;20458;-60
2023/10/19 09:21:32;;;;;;;1.30;1.20;;;21.30;99.90;;;;;;5015303;28;20516;-62
2023/10/19 09:23:59;;;;;;;1.93;1.20;;;21.30;99.90;;;;;;5017627;28;20463;-60
2023/10/19 09:26:26;;;;;;;1.40;1.20;;;21.30;99.90;;;;;;5018073;28;20470;-60
2023/10/19 09:28:55;;;;;;;1.50;1.33;;;21.40;99.90;;;;;;5013545;28;20458;-60
2023/10/19 09:31:24;;;;;;;2.13;1.10;;;21.40;99.90;;;;;;5010924;28;20457;-59
2023/10/19 09:33:53;;;;;;;1.30;1.10;;;21.40;99.90;;;;;;5013176;28;20458;-62
2023/10/19 09:36:22;;;;;;;1.80;1.50;;;21.30;99.90;;;;;;5009222;28;20478;-62
2023/10/19 09:38:50;;;;;;;1.63;1.27;;;21.30;99.90;;;;;;5011591;28;20541;-62
2023/10/19 09:41:19;;;;;;;1.57;1.20;;;21.40;99.90;;;;;;5015211;28;21317;-60
2023/10/19 09:43:48;;;;;;;1.67;1.20;;;21.30;99.90;;;;;;5016021;28;20536;-61
2023/10/19 09:46:22;;;;;;;1.60;1.00;;;21.50;99.90;;;;;;5013687;28;20461;-63
2023/10/19 09:48:49;;;;;;;1.97;1.43;;;21.40;99.90;;;;;;5015720;28;20472;-60
2023/10/19 09:51:19;;;;;;;2.80;1.40;;;21.40;99.90;;;;;;5014033;28;20464;-62
2023/10/19 09:53:50;;;;;;;4.27;1.17;;;21.50;99.90;;;;;;5013593;28;20534;-63
2023/10/19 09:56:22;;;;;;;1.43;1.10;;;21.40;99.90;;;;;;5012842;28;20492;-62
2023/10/19 09:58:51;;;;;;;1.83;1.10;;;21.40;99.90;;;;;;5017331;28;20590;-62
2023/10/19 10:01:21;;;;;;;2.90;1.23;;;21.40;99.90;;;;;;5011372;28;20974;-61
2023/10/19 10:03:50;;;;;;;3.00;1.13;;;21.50;99.90;;;;;;5012645;28;20473;-60
2023/10/19 10:06:20;;;;;;;2.87;1.47;;;21.40;99.90;;;;;;5014643;28;20469;-62
2023/10/19 10:08:47;;;;;;;1.60;1.03;;;21.40;99.90;;;;;;5015996;28;20815;-61
2023/10/19 10:11:19;;;;;;;1.40;1.30;;;21.60;99.90;;;;;;5012625;28;20461;-62
2023/10/19 10:13:50;;;;;;;2.10;1.40;;;21.50;99.90;;;;;;5011368;28;20458;-64
2023/10/19 10:16:19;;;;;;;1.23;1.10;;;21.60;99.90;;;;;;5013481;28;20484;-62
2023/10/19 10:18:51;;;;;;;1.87;1.67;;;21.50;99.90;;;;;;5014278;28;20453;-63
2023/10/19 10:21:21;;;;;;;4.80;1.60;;;21.50;99.90;;;;;;5014384;28;22159;-65
2023/10/19 10:23:50;;;;;;;5.43;1.80;;;21.60;99.90;;;;;;5015855;28;20466;-62
2023/10/19 10:26:17;;;;;;;2.90;1.23;;;21.50;99.90;;;;;;5011812;28;20469;-62
2023/10/19 10:28:47;;;;;;;1.60;1.50;;;21.50;99.90;;;;;;5014116;28;20517;-61
2023/10/19 10:31:16;;;;;;;2.27;1.10;;;21.70;99.90;;;;;;5014109;28;20473;-62
2023/10/19 10:33:49;;;;;;;1.83;0.90;;;21.60;99.90;;;;;;5015359;28;20552;-66
2023/10/19 10:36:17;;;;;;;1.60;1.17;;;21.50;99.90;;;;;;5012517;28;20597;-65
2023/10/19 10:38:45;;;;;;;2.13;1.07;;;21.70;99.90;;;;;;5010833;28;21068;-62
2023/10/19 10:41:11;;;;;;;1.30;1.10;;;21.60;99.90;;;;;;5012253;28;20921;-66
2023/10/19 10:43:55;;;;;;;1.10;0.90;;;21.60;99.90;;;;;;5014363;28;20461;-64
2023/10/19 10:46:23;;;;;;;2.80;1.13;;;21.70;99.90;;;;;;5015076;28;20517;-64
2023/10/19 10:48:52;;;;;;;1.20;1.03;;;21.60;99.90;;;;;;5011819;28;21086;-62
2023/10/19 10:51:19;;;;;;;1.30;1.20;;;21.70;99.90;;;;;;5014610;28;20530;-62
2023/10/19 10:53:48;;;;;;;1.00;0.90;;;21.80;99.90;;;;;;5013184;28;20458;-63
2023/10/19 10:56:15;;;;;;;2.20;1.30;;;21.70;99.90;;;;;;5014568;28;20505;-62
2023/10/19 10:58:42;;;;;;;1.87;1.13;;;21.80;99.90;;;;;;5016785;28;20701;-61
2023/10/19 11:01:10;;;;;;;2.40;1.57;;;21.80;99.90;;;;;;5006916;28;20850;-67
2023/10/19 11:03:37;;;;;;;2.93;1.30;;;21.80;99.90;;;;;;5012929;28;20751;-68
2023/10/19 11:06:08;;;;;;;1.40;1.20;;;21.80;99.90;;;;;;5015346;28;20744;-67
2023/10/19 11:08:36;;;;;;;1.80;1.07;;;21.80;99.90;;;;;;5016215;28;20754;-63
2023/10/19 11:11:05;;;;;;;2.93;1.20;;;21.80;99.90;;;;;;5016100;28;20494;-64
2023/10/19 11:13:34;;;;;;;1.40;1.00;;;21.80;99.90;;;;;;5015608;28;20461;-62
2023/10/19 11:16:03;;;;;;;1.40;1.20;;;21.90;99.90;;;;;;5010530;28;20485;-64
2023/10/19 11:18:32;;;;;;;1.93;1.40;;;21.90;99.90;;;;;;5009602;28;20465;-63
2023/10/19 11:21:04;;;;;;;2.83;1.60;;;22.00;99.90;;;;;;5007160;28;20466;-64
2023/10/19 11:23:43;;;;;;;2.33;1.17;;;22.00;99.90;;;;;;5015748;28;20597;-60
2023/10/19 11:26:11;;;;;;;3.60;1.40;;;22.00;99.90;;;;;;5017060;28;21000;-61
2023/10/19 11:28:50;;;;;;;1.60;1.30;;;22.10;99.90;;;;;;5015226;28;20591;-61
2023/10/19 11:31:18;;;;;;;1.20;1.10;;;22.10;99.90;;;;;;5015337;28;20561;-61
2023/10/19 11:33:48;;;;;;;1.77;1.33;;;22.20;99.90;;;;;;5012609;28;20470;-63
2023/10/19 11:36:15;;;;;;;2.17;1.50;;;22.20;99.90;;;;;;5010460;28;20478;-60
2023/10/19 11:38:44;;;;;;;2.80;1.50;;;22.20;99.90;;;;;;5015825;28;20456;-62
2023/10/19 11:41:12;;;;;;;2.43;1.60;;;22.20;99.90;;;;;;5020916;28;20456;-64
2023/10/19 11:43:39;;;;;;;2.90;1.40;;;22.20;99.90;;;;;;5017700;28;20452;-61
2023/10/19 11:46:06;;;;;;;1.60;1.33;;;22.30;99.90;;;;;;5017009;28;20476;-62
2023/10/19 11:48:35;;;;;;;1.50;1.40;;;22.30;99.90;;;;;;5019106;28;20468;-62
2023/10/19 11:51:03;;;;;;;1.70;1.27;;;22.20;99.90;;;;;;5012274;28;20583;-61
2023/10/19 11:53:34;;;;;;;2.00;1.60;;;22.30;99.90;;;;;;5015940;28;21051;-61
2023/10/19 11:56:05;;;;;;;1.63;1.33;;;22.20;99.90;;;;;;5018449;28;20562;-61
2023/10/19 11:58:34;;;;;;;2.50;1.43;;;22.30;99.90;;;;;;5018158;28;20462;-62
2023/10/19 12:01:01;;;;;;;1.30;1.20;;;22.30;99.90;;;;;;5017193;28;20461;-61
2023/10/19 12:03:28;;;;;;;2.00;1.30;;;22.30;99.90;;;;;;5015306;28;20533;-62
2023/10/19 12:05:56;;;;;;;3.07;1.77;;;22.30;99.90;;;;;;5016447;28;20461;-61
2023/10/19 12:08:23;;;;;;;1.70;1.30;;;22.30;99.90;;;;;;5020896;28;20454;-61
2023/10/19 12:10:50;;;;;;;3.27;1.40;;;22.30;99.90;;;;;;5017602;28;20462;-62
2023/10/19 12:13:18;;;;;;;5.43;1.37;;;22.40;99.90;;;;;;5017805;28;20869;-61
2023/10/19 12:15:51;;;;;;;1.67;1.27;;;22.40;99.90;;;;;;5019433;28;20596;-62
2023/10/19 12:18:18;;;;;;;2.10;1.40;;;22.30;99.80;;;;;;5016533;28;20454;-61
2023/10/19 12:20:46;;;;;;;1.77;1.33;;;22.30;99.90;;;;;;5016690;28;20976;-61
2023/10/19 12:23:12;;;;;;;1.60;1.40;;;22.40;99.70;;;;;;5021147;28;20470;-62
2023/10/19 12:25:39;;;;;;;3.00;1.30;;;22.30;99.60;;;;;;5021411;28;20466;-61
2023/10/19 12:28:07;;;;;;;2.90;1.40;;;22.30;99.60;;;;;;5019445;28;21367;-61
2023/10/19 12:30:36;;;;;;;1.77;1.20;;;22.30;99.50;;;;;;5018398;28;20459;-62
2023/10/19 12:33:07;;;;;;;2.67;1.53;;;22.40;99.60;;;;;;5020220;28;20532;-62
2023/10/19 12:35:44;;;;;;;1.47;1.20;;;22.40;99.60;;;;;;5018382;28;20473;-62
2023/10/19 12:38:15;;;;;;;1.90;1.50;;;22.30;99.50;;;;;;5016210;28;20958;-61
2023/10/19 12:40:44;;;;;;;4.43;1.57;;;22.30;99.50;;;;;;5017551;28;20507;-62
2023/10/19 12:43:12;;;;;;;1.80;1.20;;;22.30;99.50;;;;;;5018480;28;20462;-61
2023/10/19 12:45:40;;;;;;;1.40;1.23;;;22.30;99.50;;;;;;5017764;28;20461;-62
2023/10/19 12:48:10;;;;;;;1.50;1.23;;;22.40;99.50;;;;;;5017476;28;20489;-61
2023/10/19 12:50:38;;;;;;;1.17;1.07;;;22.30;99.50;;;;;;5013288;28;20807;-61
2023/10/19 12:53:06;;;;;;;5.83;1.43;;;22.30;99.50;;;;;;5016613;28;21287;-61
2023/10/19 12:55:32;;;;;;;1.80;1.20;;;22.30;99.40;;;;;;5016914;28;20465;-61
2023/10/19 12:58:06;;;;;;;1.30;1.10;;;22.30;99.40;;;;;;5017365;28;20683;-62